Αναφορές Αεροδρομίων

 

KSJC - San Jose, California, USA
Distance from station: ΒΑ 14km
Ενημερώθηκε: 19/01/2022 23:53
Few Clouds
Few Clouds
 Ανεμος από ΒΒΔ
Ανεμος: ΒΒΔ 9 km/h
Θερμοκρασία: 16°C
Σημείο Δρόσου: 8°C
Υγρασία: 59%
Βαρόμετρο: 1023 hPa
Clouds: Few Clouds
Visibility: 16 km
Cloud details: Few Clouds 2438 m
2022/01/19 21:53 KSJC 192153Z 34005KT 10SM FEW080 16/08 A3021 RMK AO2 SLP228 T01560083
KNUQ - Moffett Nas/Mtn, California, USA
Distance from station: Β 14km
Ενημερώθηκε: 20/01/2022 00:35
Αίθριος
Αίθριος
 Ανεμος από Β
Ανεμος: Β 11 km/h
Θερμοκρασία: 16°C
Σημείο Δρόσου: 10°C
Υγρασία: 68%
Βαρόμετρο: 1022.7 hPa
Clouds: Αίθριος
Visibility: 16 km
2022/01/19 22:35 KNUQ 192235Z AUTO 36006KT 10SM CLR 16/10 A3020 RMK AO2
 
KPAO - Palo Alto, California, USA
Distance from station: ΒΒΔ 23km
Ενημερώθηκε: 19/01/2022 23:47
Αίθριος
Αίθριος
 Ανεμος από varies
Ανεμος: varies 7 km/h
Θερμοκρασία: 12°C
Σημείο Δρόσου: 9°C
Υγρασία: 82%
Βαρόμετρο: 1023.4 hPa
Clouds: Αίθριος
Visibility: 16 km
2022/01/19 21:47 KPAO 192147Z VRB04KT 10SM SKC 12/09 A3022
KRHV - San Jose/Reid, California, USA
Distance from station: ΑΒΑ 19km
Ενημερώθηκε: 19/01/2022 23:48
Αίθριος
Αίθριος
 Ανεμος από ΒΔ
Ανεμος: ΒΔ 7 km/h
Θερμοκρασία: 14°C
Σημείο Δρόσου: 8°C
Υγρασία: 67%
Βαρόμετρο: 1023.4 hPa
Clouds: Αίθριος
Visibility: 16 km
2022/01/19 21:48 KRHV 192148Z 31004KT 10SM SKC 14/08 A3022
 
KOAK - Oakland, California, USA
Distance from station: ΒΒΔ 50km
Ενημερώθηκε: 19/01/2022 23:53
Few Clouds
Few Clouds
 Ανεμος από ΔΝΔ
Ανεμος: ΔΝΔ 6 km/h
Θερμοκρασία: 11°C
Σημείο Δρόσου: 9°C
Υγρασία: 88%
Βαρόμετρο: 1023.7 hPa
Clouds: Few Clouds
Visibility: 14 km
Cloud details: Few Clouds 183 m
Few Clouds 6096 m
2022/01/19 21:53 KOAK 192153Z 25003KT 9SM FEW006 FEW200 11/09 A3023 RMK AO2 SLP237 T01110089
KSQL - San Carlos Airpo, California, USA
Distance from station: ΒΔ 34km
Ενημερώθηκε: 19/01/2022 23:53
Mist, Αίθριος
Mist, Αίθριος
 Ανεμος από varies
Ανεμος: varies 6 km/h
Θερμοκρασία: 12°C
Σημείο Δρόσου: 9°C
Υγρασία: 82%
Βαρόμετρο: 1023.7 hPa
Περίληψη: Mist
Clouds: Αίθριος
Visibility: 10 km
2022/01/19 21:53 KSQL 192153Z VRB03KT 6SM BR CLR 12/09 A3023
 
KSFO - San Francisco, California, USA
Distance from station: ΒΔ 49km
Ενημερώθηκε: 19/01/2022 23:56
Few Clouds
Few Clouds
 Ανεμος από Α
Ανεμος: Α 6 km/h
Θερμοκρασία: 12°C
Σημείο Δρόσου: 9°C
Υγρασία: 82%
Βαρόμετρο: 1023.4 hPa
Clouds: Few Clouds
Visibility: 14 km
Cloud details: Few Clouds 2438 m
2022/01/19 21:56 KSFO 192156Z 08003KT 9SM FEW080 12/09 A3022 RMK AO2 SLP231 T01170094
KE16 - San Martin, California, USA
Distance from station: ΑΝΑ 43km
Ενημερώθηκε: 20/01/2022 00:30
Αίθριος
Αίθριος
 Ανεμος από ΒΒΔ
Ανεμος: ΒΒΔ 17 km/h
Θερμοκρασία: 15°C
Σημείο Δρόσου: 8°C
Υγρασία: 63%
Βαρόμετρο: 1023 hPa
Clouds: Αίθριος
Visibility: 16 km
2022/01/19 22:30 KE16 192230Z AUTO 34009KT 10SM CLR 15/08 A3021 RMK AO2 PWINO PNO
 
KWVI - Watsonville, California, USA
Distance from station: ΝΝΑ 44km
Ενημερώθηκε: 19/01/2022 23:53
Αίθριος
Αίθριος
 Ανεμος από varies
Ανεμος: varies 6 km/h
Θερμοκρασία: 16°C
Σημείο Δρόσου: 9°C
Υγρασία: 63%
Βαρόμετρο: 1022.7 hPa
Clouds: Αίθριος
Visibility: 16 km
2022/01/19 21:53 KWVI 192153Z AUTO VRB03KT 10SM CLR 16/09 A3020 RMK AO2 SLP226 T01610094
KHAF - Half Moon Bay, California, USA
Distance from station: ΔΒΔ 50km
Ενημερώθηκε: 20/01/2022 00:35
Αίθριος
Αίθριος
 Ανεμος από ΒΒΔ
Ανεμος: ΒΒΔ 22 km/h
Θερμοκρασία: 13°C
Σημείο Δρόσου: 11°C
Υγρασία: 88%
Βαρόμετρο: 1023 hPa
Clouds: Αίθριος
Visibility: 13 km
2022/01/19 22:35 KHAF 192235Z AUTO 33012KT 8SM CLR 13/11 A3021 RMK AO2
 
KHWD - Hayward, California, USA
Distance from station: Β 44km
Ενημερώθηκε: 19/01/2022 23:54
Αίθριος
Αίθριος
 Ανεμος από calm
Ανεμος: Απνοια
Θερμοκρασία: 14°C
Σημείο Δρόσου: 8°C
Υγρασία: 67%
Βαρόμετρο: 1023.4 hPa
Clouds: Αίθριος
Visibility: 14 km
2022/01/19 21:54 KHWD 192154Z 00000KT 9SM CLR 14/08 A3022 RMK AO2 SLP242 T01440083
KLVK - Livermore, California, USA
Distance from station: ΒΒΑ 51km
Ενημερώθηκε: 19/01/2022 23:53
Αίθριος
Αίθριος
 Ανεμος από calm
Ανεμος: Απνοια
Θερμοκρασία: 17°C
Σημείο Δρόσου: 7°C
Υγρασία: 52%
Βαρόμετρο: 1022.7 hPa
Clouds: Αίθριος
Visibility: 16 km
2022/01/19 21:53 KLVK 192153Z 00000KT 10SM CLR 17/07 A3020 RMK AO2 SLP226 T01670067